sensor_id;sensor_type;location;lat;lon;timestamp;pressure;altitude;pressure_sealevel;temperature;humidity
71145;BME280;58812;47.698;17.726;2023-04-20T00:02:18;100224.28;;;5.99;100.00
71145;BME280;58812;47.698;17.726;2023-04-20T00:04:45;100230.53;;;5.98;100.00
71145;BME280;58812;47.698;17.726;2023-04-20T00:07:11;100230.28;;;5.90;100.00
71145;BME280;58812;47.698;17.726;2023-04-20T00:09:37;100221.09;;;5.83;100.00
71145;BME280;58812;47.698;17.726;2023-04-20T00:12:02;100221.59;;;5.88;100.00
71145;BME280;58812;47.698;17.726;2023-04-20T00:14:28;100218.44;;;5.83;100.00
71145;BME280;58812;47.698;17.726;2023-04-20T00:16:53;100219.50;;;5.80;100.00
71145;BME280;58812;47.698;17.726;2023-04-20T00:19:18;100215.75;;;5.72;100.00
71145;BME280;58812;47.698;17.726;2023-04-20T00:21:47;100220.81;;;5.63;100.00
71145;BME280;58812;47.698;17.726;2023-04-20T00:24:13;100210.34;;;5.49;100.00
71145;BME280;58812;47.698;17.726;2023-04-20T00:26:38;100208.03;;;5.45;100.00
71145;BME280;58812;47.698;17.726;2023-04-20T00:29:03;100209.13;;;5.42;100.00
71145;BME280;58812;47.698;17.726;2023-04-20T00:31:30;100212.28;;;5.47;100.00
71145;BME280;58812;47.698;17.726;2023-04-20T00:33:56;100211.66;;;5.44;100.00
71145;BME280;58812;47.698;17.726;2023-04-20T00:36:21;100214.66;;;5.39;100.00
71145;BME280;58812;47.698;17.726;2023-04-20T00:38:46;100207.16;;;5.33;100.00
71145;BME280;58812;47.698;17.726;2023-04-20T00:41:12;100209.59;;;5.36;100.00
71145;BME280;58812;47.698;17.726;2023-04-20T00:43:48;100211.62;;;5.32;100.00
71145;BME280;58812;47.698;17.726;2023-04-20T00:46:14;100203.88;;;5.29;100.00
71145;BME280;58812;47.698;17.726;2023-04-20T00:48:41;100205.34;;;5.33;100.00
71145;BME280;58812;47.698;17.726;2023-04-20T00:51:06;100203.03;;;5.29;100.00
71145;BME280;58812;47.698;17.726;2023-04-20T00:53:32;100210.37;;;5.25;100.00
71145;BME280;58812;47.698;17.726;2023-04-20T00:55:58;100206.63;;;5.17;100.00
71145;BME280;58812;47.698;17.726;2023-04-20T00:58:23;100203.97;;;5.17;100.00
71145;BME280;58812;47.698;17.726;2023-04-20T01:00:49;100213.50;;;5.19;100.00
71145;BME280;58812;47.698;17.726;2023-04-20T01:03:15;100202.47;;;5.13;100.00
71145;BME280;58812;47.698;17.726;2023-04-20T01:05:40;100203.34;;;5.13;100.00
71145;BME280;58812;47.698;17.726;2023-04-20T01:08:06;100200.28;;;5.06;100.00
71145;BME280;58812;47.698;17.726;2023-04-20T01:10:31;100189.78;;;5.05;100.00
71145;BME280;58812;47.698;17.726;2023-04-20T01:12:57;100196.53;;;5.09;100.00
71145;BME280;58812;47.698;17.726;2023-04-20T01:15:23;100190.41;;;5.08;100.00
71145;BME280;58812;47.698;17.726;2023-04-20T01:17:48;100184.94;;;4.99;100.00
71145;BME280;58812;47.698;17.726;2023-04-20T01:20:14;100194.25;;;5.04;100.00
71145;BME280;58812;47.698;17.726;2023-04-20T01:22:46;100190.63;;;5.05;100.00
71145;BME280;58812;47.698;17.726;2023-04-20T01:25:12;100188.19;;;5.02;100.00
71145;BME280;58812;47.698;17.726;2023-04-20T01:27:37;100198.81;;;5.02;100.00
71145;BME280;58812;47.698;17.726;2023-04-20T01:30:03;100194.78;;;4.97;100.00
71145;BME280;58812;47.698;17.726;2023-04-20T01:32:28;100192.44;;;4.81;100.00
71145;BME280;58812;47.698;17.726;2023-04-20T01:34:53;100187.84;;;4.83;100.00
71145;BME280;58812;47.698;17.726;2023-04-20T01:37:19;100192.19;;;4.84;100.00
71145;BME280;58812;47.698;17.726;2023-04-20T01:39:44;100199.75;;;4.77;100.00
71145;BME280;58812;47.698;17.726;2023-04-20T01:42:10;100188.88;;;4.69;100.00
71145;BME280;58812;47.698;17.726;2023-04-20T01:44:35;100190.75;;;4.67;100.00
71145;BME280;58812;47.698;17.726;2023-04-20T01:47:01;100189.72;;;4.70;100.00
71145;BME280;58812;47.698;17.726;2023-04-20T01:49:26;100198.00;;;4.65;100.00
71145;BME280;58812;47.698;17.726;2023-04-20T01:51:51;100194.81;;;4.60;100.00
71145;BME280;58812;47.698;17.726;2023-04-20T01:54:17;100184.00;;;4.63;100.00
71145;BME280;58812;47.698;17.726;2023-04-20T01:56:42;100184.84;;;4.64;100.00
71145;BME280;58812;47.698;17.726;2023-04-20T01:59:08;100181.44;;;4.62;100.00
71145;BME280;58812;47.698;17.726;2023-04-20T02:01:33;100199.06;;;4.63;100.00
71145;BME280;58812;47.698;17.726;2023-04-20T02:03:59;100191.22;;;4.61;100.00
71145;BME280;58812;47.698;17.726;2023-04-20T02:06:24;100187.00;;;4.59;100.00
71145;BME280;58812;47.698;17.726;2023-04-20T02:08:50;100182.41;;;4.61;100.00
71145;BME280;58812;47.698;17.726;2023-04-20T02:11:15;100194.69;;;4.62;100.00
71145;BME280;58812;47.698;17.726;2023-04-20T02:13:40;100190.03;;;4.65;100.00
71145;BME280;58812;47.698;17.726;2023-04-20T02:16:06;100181.44;;;4.62;100.00
71145;BME280;58812;47.698;17.726;2023-04-20T02:18:32;100179.31;;;4.67;100.00
71145;BME280;58812;47.698;17.726;2023-04-20T02:20:59;100177.19;;;4.72;100.00
71145;BME280;58812;47.698;17.726;2023-04-20T02:23:24;100173.41;;;4.63;100.00
71145;BME280;58812;47.698;17.726;2023-04-20T02:25:50;100187.59;;;4.62;100.00
71145;BME280;58812;47.698;17.726;2023-04-20T02:28:15;100180.44;;;4.51;100.00
71145;BME280;58812;47.698;17.726;2023-04-20T02:30:41;100175.06;;;4.40;100.00
71145;BME280;58812;47.698;17.726;2023-04-20T02:33:06;100176.22;;;4.36;100.00
71145;BME280;58812;47.698;17.726;2023-04-20T02:35:32;100179.41;;;4.28;100.00
71145;BME280;58812;47.698;17.726;2023-04-20T02:37:58;100172.75;;;4.23;100.00
71145;BME280;58812;47.698;17.726;2023-04-20T02:40:23;100177.72;;;4.27;100.00
71145;BME280;58812;47.698;17.726;2023-04-20T02:42:49;100180.81;;;4.21;100.00
71145;BME280;58812;47.698;17.726;2023-04-20T02:45:15;100185.78;;;4.13;100.00
71145;BME280;58812;47.698;17.726;2023-04-20T02:47:40;100191.94;;;4.14;100.00
71145;BME280;58812;47.698;17.726;2023-04-20T02:50:06;100182.81;;;4.18;100.00
71145;BME280;58812;47.698;17.726;2023-04-20T02:52:33;100181.34;;;4.14;100.00
71145;BME280;58812;47.698;17.726;2023-04-20T02:54:58;100180.06;;;4.07;100.00
71145;BME280;58812;47.698;17.726;2023-04-20T02:57:24;100190.03;;;4.03;100.00
71145;BME280;58812;47.698;17.726;2023-04-20T02:59:50;100181.03;;;4.06;100.00
71145;BME280;58812;47.698;17.726;2023-04-20T03:02:15;100184.31;;;4.09;100.00
71145;BME280;58812;47.698;17.726;2023-04-20T03:04:41;100189.94;;;4.05;100.00
71145;BME280;58812;47.698;17.726;2023-04-20T03:07:07;100190.91;;;4.04;100.00
71145;BME280;58812;47.698;17.726;2023-04-20T03:09:34;100194.47;;;4.02;100.00
71145;BME280;58812;47.698;17.726;2023-04-20T03:12:00;100187.28;;;4.05;100.00
71145;BME280;58812;47.698;17.726;2023-04-20T03:14:27;100191.09;;;4.00;100.00
71145;BME280;58812;47.698;17.726;2023-04-20T03:16:52;100192.25;;;3.96;100.00
71145;BME280;58812;47.698;17.726;2023-04-20T03:19:17;100184.31;;;3.96;100.00
71145;BME280;58812;47.698;17.726;2023-04-20T03:21:43;100189.41;;;3.99;100.00
71145;BME280;58812;47.698;17.726;2023-04-20T03:24:09;100183.59;;;3.94;100.00
71145;BME280;58812;47.698;17.726;2023-04-20T03:26:34;100180.63;;;3.86;100.00
71145;BME280;58812;47.698;17.726;2023-04-20T03:29:00;100189.19;;;3.77;100.00
71145;BME280;58812;47.698;17.726;2023-04-20T03:31:26;100186.44;;;3.79;100.00
71145;BME280;58812;47.698;17.726;2023-04-20T03:33:51;100179.44;;;3.78;100.00
71145;BME280;58812;47.698;17.726;2023-04-20T03:36:17;100178.41;;;3.80;100.00
71145;BME280;58812;47.698;17.726;2023-04-20T03:38:42;100180.28;;;3.78;100.00
71145;BME280;58812;47.698;17.726;2023-04-20T03:41:07;100192.97;;;3.73;100.00
71145;BME280;58812;47.698;17.726;2023-04-20T03:43:33;100190.56;;;3.70;100.00
71145;BME280;58812;47.698;17.726;2023-04-20T03:45:59;100196.59;;;3.72;100.00
71145;BME280;58812;47.698;17.726;2023-04-20T03:48:25;100198.69;;;3.67;100.00
71145;BME280;58812;47.698;17.726;2023-04-20T03:50:50;100193.41;;;3.67;100.00
71145;BME280;58812;47.698;17.726;2023-04-20T03:53:16;100192.47;;;3.68;100.00
71145;BME280;58812;47.698;17.726;2023-04-20T03:55:41;100199.87;;;3.75;100.00
71145;BME280;58812;47.698;17.726;2023-04-20T03:58:07;100199.59;;;3.80;100.00
71145;BME280;58812;47.698;17.726;2023-04-20T04:00:33;100194.78;;;3.85;100.00
71145;BME280;58812;47.698;17.726;2023-04-20T04:02:58;100201.03;;;3.84;100.00
71145;BME280;58812;47.698;17.726;2023-04-20T04:05:24;100202.00;;;3.83;100.00
71145;BME280;58812;47.698;17.726;2023-04-20T04:07:50;100196.41;;;3.88;100.00
71145;BME280;58812;47.698;17.726;2023-04-20T04:10:15;100208.50;;;3.92;100.00
71145;BME280;58812;47.698;17.726;2023-04-20T04:12:43;100198.75;;;3.92;100.00
71145;BME280;58812;47.698;17.726;2023-04-20T04:15:09;100207.53;;;3.93;100.00
71145;BME280;58812;47.698;17.726;2023-04-20T04:17:35;100211.62;;;3.97;100.00
71145;BME280;58812;47.698;17.726;2023-04-20T04:20:00;100215.66;;;4.02;100.00
71145;BME280;58812;47.698;17.726;2023-04-20T04:22:26;100217.88;;;4.09;100.00
71145;BME280;58812;47.698;17.726;2023-04-20T04:24:51;100217.16;;;4.19;100.00
71145;BME280;58812;47.698;17.726;2023-04-20T04:27:18;100223.94;;;4.23;100.00
71145;BME280;58812;47.698;17.726;2023-04-20T04:29:45;100223.28;;;4.33;100.00
71145;BME280;58812;47.698;17.726;2023-04-20T04:32:10;100226.47;;;4.38;100.00
71145;BME280;58812;47.698;17.726;2023-04-20T04:34:36;100231.97;;;4.47;100.00
71145;BME280;58812;47.698;17.726;2023-04-20T04:37:02;100240.56;;;4.51;100.00
71145;BME280;58812;47.698;17.726;2023-04-20T04:39:28;100231.09;;;4.60;100.00
71145;BME280;58812;47.698;17.726;2023-04-20T04:41:54;100233.19;;;4.67;100.00
71145;BME280;58812;47.698;17.726;2023-04-20T04:44:19;100234.28;;;4.65;100.00
71145;BME280;58812;47.698;17.726;2023-04-20T04:46:45;100236.19;;;4.63;100.00
71145;BME280;58812;47.698;17.726;2023-04-20T04:49:12;100240.97;;;4.58;100.00
71145;BME280;58812;47.698;17.726;2023-04-20T04:51:37;100228.88;;;4.53;100.00
71145;BME280;58812;47.698;17.726;2023-04-20T04:54:03;100230.25;;;4.59;100.00
71145;BME280;58812;47.698;17.726;2023-04-20T04:56:28;100230.44;;;4.56;100.00
71145;BME280;58812;47.698;17.726;2023-04-20T04:58:54;100235.00;;;4.67;100.00
71145;BME280;58812;47.698;17.726;2023-04-20T05:01:19;100234.81;;;4.94;100.00
71145;BME280;58812;47.698;17.726;2023-04-20T05:03:45;100235.34;;;4.99;100.00
71145;BME280;58812;47.698;17.726;2023-04-20T05:06:11;100236.75;;;5.16;100.00
71145;BME280;58812;47.698;17.726;2023-04-20T05:08:36;100233.94;;;5.30;100.00
71145;BME280;58812;47.698;17.726;2023-04-20T05:11:02;100238.44;;;5.41;100.00
71145;BME280;58812;47.698;17.726;2023-04-20T05:13:27;100236.91;;;5.49;100.00
71145;BME280;58812;47.698;17.726;2023-04-20T05:15:53;100240.56;;;5.59;100.00
71145;BME280;58812;47.698;17.726;2023-04-20T05:18:18;100244.41;;;5.90;100.00
71145;BME280;58812;47.698;17.726;2023-04-20T05:20:43;100237.69;;;6.09;100.00
71145;BME280;58812;47.698;17.726;2023-04-20T05:23:09;100249.91;;;6.11;100.00
71145;BME280;58812;47.698;17.726;2023-04-20T05:25:34;100249.56;;;6.50;100.00
71145;BME280;58812;47.698;17.726;2023-04-20T05:28:00;100250.41;;;6.73;100.00
71145;BME280;58812;47.698;17.726;2023-04-20T05:30:25;100256.44;;;6.75;100.00
71145;BME280;58812;47.698;17.726;2023-04-20T05:32:51;100257.41;;;6.85;100.00
71145;BME280;58812;47.698;17.726;2023-04-20T05:35:16;100264.25;;;7.10;100.00
71145;BME280;58812;47.698;17.726;2023-04-20T05:37:42;100266.38;;;6.84;100.00
71145;BME280;58812;47.698;17.726;2023-04-20T05:40:08;100267.44;;;6.92;100.00
71145;BME280;58812;47.698;17.726;2023-04-20T05:42:34;100268.75;;;7.09;100.00
71145;BME280;58812;47.698;17.726;2023-04-20T05:44:59;100274.31;;;7.49;99.38
71145;BME280;58812;47.698;17.726;2023-04-20T05:47:25;100266.56;;;7.79;96.76
71145;BME280;58812;47.698;17.726;2023-04-20T05:49:52;100270.47;;;8.16;95.82
71145;BME280;58812;47.698;17.726;2023-04-20T05:52:17;100274.13;;;8.15;95.66
71145;BME280;58812;47.698;17.726;2023-04-20T05:54:43;100275.75;;;8.07;93.61
71145;BME280;58812;47.698;17.726;2023-04-20T05:57:08;100274.97;;;7.42;96.46
71145;BME280;58812;47.698;17.726;2023-04-20T05:59:34;100272.38;;;7.84;95.84
71145;BME280;58812;47.698;17.726;2023-04-20T06:02:00;100268.78;;;7.73;95.65
71145;BME280;58812;47.698;17.726;2023-04-20T06:04:25;100277.16;;;8.52;92.93
71145;BME280;58812;47.698;17.726;2023-04-20T06:06:51;100279.84;;;8.93;91.26
71145;BME280;58812;47.698;17.726;2023-04-20T06:09:16;100278.53;;;8.47;90.22
71145;BME280;58812;47.698;17.726;2023-04-20T06:11:42;100281.09;;;8.79;89.18
71145;BME280;58812;47.698;17.726;2023-04-20T06:14:07;100279.00;;;8.92;88.99
71145;BME280;58812;47.698;17.726;2023-04-20T06:16:33;100287.56;;;9.46;86.65
71145;BME280;58812;47.698;17.726;2023-04-20T11:37:47;100250.81;;;18.45;51.33
71145;BME280;58812;47.698;17.726;2023-04-20T11:40:15;100248.09;;;19.88;47.79
71145;BME280;58812;47.698;17.726;2023-04-20T11:42:41;100261.59;;;20.88;44.91
71145;BME280;58812;47.698;17.726;2023-04-20T11:45:07;100263.47;;;20.94;43.13
71145;BME280;58812;47.698;17.726;2023-04-20T11:47:32;100259.69;;;21.46;42.88
71145;BME280;58812;47.698;17.726;2023-04-20T11:49:58;100261.16;;;21.80;40.22
71145;BME280;58812;47.698;17.726;2023-04-20T11:52:23;100259.16;;;20.60;43.94
71145;BME280;58812;47.698;17.726;2023-04-20T11:54:49;100257.50;;;21.17;41.71
71145;BME280;58812;47.698;17.726;2023-04-20T11:57:14;100253.94;;;21.23;40.48
71145;BME280;58812;47.698;17.726;2023-04-20T11:59:40;100263.44;;;21.58;40.48
71145;BME280;58812;47.698;17.726;2023-04-20T12:02:07;100257.19;;;21.83;40.03
71145;BME280;58812;47.698;17.726;2023-04-20T12:04:33;100243.56;;;21.83;39.16
71145;BME280;58812;47.698;17.726;2023-04-20T12:06:59;100253.66;;;22.32;38.92
71145;BME280;58812;47.698;17.726;2023-04-20T12:09:26;100247.81;;;22.29;38.71
71145;BME280;58812;47.698;17.726;2023-04-20T12:11:52;100239.91;;;20.21;42.49
71145;BME280;58812;47.698;17.726;2023-04-20T12:14:18;100242.12;;;18.97;45.35
71145;BME280;58812;47.698;17.726;2023-04-20T12:16:43;100244.28;;;19.08;44.27
71145;BME280;58812;47.698;17.726;2023-04-20T12:19:09;100233.81;;;19.60;44.93
71145;BME280;58812;47.698;17.726;2023-04-20T12:21:34;100230.91;;;19.00;46.64
71145;BME280;58812;47.698;17.726;2023-04-20T12:24:00;100229.81;;;18.94;49.31
71145;BME280;58812;47.698;17.726;2023-04-20T12:26:25;100232.72;;;19.47;46.65
71145;BME280;58812;47.698;17.726;2023-04-20T12:28:51;100223.78;;;18.92;48.77
71145;BME280;58812;47.698;17.726;2023-04-20T12:31:16;100227.75;;;19.58;46.11
71145;BME280;58812;47.698;17.726;2023-04-20T12:33:42;100229.06;;;19.88;45.98
71145;BME280;58812;47.698;17.726;2023-04-20T12:36:08;100229.44;;;20.65;44.48
71145;BME280;58812;47.698;17.726;2023-04-20T12:38:33;100219.59;;;19.51;45.56
71145;BME280;58812;47.698;17.726;2023-04-20T12:41:00;100227.06;;;21.40;42.61
71145;BME280;58812;47.698;17.726;2023-04-20T12:43:26;100224.38;;;21.96;41.25
71145;BME280;58812;47.698;17.726;2023-04-20T12:45:52;100217.06;;;21.20;42.85
71145;BME280;58812;47.698;17.726;2023-04-20T12:48:18;100219.38;;;20.72;42.81
71145;BME280;58812;47.698;17.726;2023-04-20T12:50:43;100214.44;;;21.45;42.46
71145;BME280;58812;47.698;17.726;2023-04-20T12:53:09;100217.72;;;21.29;42.75
71145;BME280;58812;47.698;17.726;2023-04-20T12:55:35;100214.63;;;22.13;42.27
71145;BME280;58812;47.698;17.726;2023-04-20T12:58:00;100211.34;;;22.48;41.91
71145;BME280;58812;47.698;17.726;2023-04-20T13:00:26;100218.31;;;22.62;41.41
71145;BME280;58812;47.698;17.726;2023-04-20T13:02:51;100210.50;;;21.73;42.37
71145;BME280;58812;47.698;17.726;2023-04-20T13:05:16;100210.28;;;21.99;42.04
71145;BME280;58812;47.698;17.726;2023-04-20T13:07:42;100211.06;;;22.13;42.07
71145;BME280;58812;47.698;17.726;2023-04-20T13:10:08;100206.03;;;22.10;40.19
71145;BME280;58812;47.698;17.726;2023-04-20T13:12:33;100205.19;;;21.84;41.32
71145;BME280;58812;47.698;17.726;2023-04-20T13:14:59;100203.25;;;21.60;41.96
71145;BME280;58812;47.698;17.726;2023-04-20T13:17:24;100201.38;;;21.60;42.32
71145;BME280;58812;47.698;17.726;2023-04-20T13:19:50;100195.00;;;20.97;43.07
71145;BME280;58812;47.698;17.726;2023-04-20T13:22:16;100184.53;;;19.96;46.35
71145;BME280;58812;47.698;17.726;2023-04-20T13:24:41;100183.37;;;20.76;43.93
71145;BME280;58812;47.698;17.726;2023-04-20T13:27:07;100194.06;;;20.45;43.74
71145;BME280;58812;47.698;17.726;2023-04-20T13:29:32;100187.97;;;20.76;43.72
71145;BME280;58812;47.698;17.726;2023-04-20T13:31:58;100185.31;;;21.07;42.44
71145;BME280;58812;47.698;17.726;2023-04-20T13:34:23;100186.47;;;21.25;42.30
71145;BME280;58812;47.698;17.726;2023-04-20T13:36:49;100191.38;;;21.10;42.63
71145;BME280;58812;47.698;17.726;2023-04-20T13:39:15;100183.75;;;20.80;42.62
71145;BME280;58812;47.698;17.726;2023-04-20T13:41:41;100176.75;;;20.26;41.81
71145;BME280;58812;47.698;17.726;2023-04-20T13:44:07;100177.62;;;19.80;42.78
71145;BME280;58812;47.698;17.726;2023-04-20T13:46:39;100182.00;;;20.21;43.62
71145;BME280;58812;47.698;17.726;2023-04-20T13:49:05;100179.91;;;20.10;42.70
71145;BME280;58812;47.698;17.726;2023-04-20T13:51:30;100179.69;;;20.24;42.35
71145;BME280;58812;47.698;17.726;2023-04-20T13:53:56;100178.81;;;20.64;41.96
71145;BME280;58812;47.698;17.726;2023-04-20T13:56:22;100177.69;;;20.78;41.79
71145;BME280;58812;47.698;17.726;2023-04-20T13:58:47;100170.34;;;20.85;42.00
71145;BME280;58812;47.698;17.726;2023-04-20T14:01:13;100167.47;;;20.73;41.42
71145;BME280;58812;47.698;17.726;2023-04-20T14:03:41;100166.56;;;20.86;41.53
71145;BME280;58812;47.698;17.726;2023-04-20T14:06:07;100170.09;;;20.22;42.26
71145;BME280;58812;47.698;17.726;2023-04-20T14:08:33;100167.81;;;20.06;42.46
71145;BME280;58812;47.698;17.726;2023-04-20T14:10:58;100165.87;;;20.26;42.56
71145;BME280;58812;47.698;17.726;2023-04-20T14:13:24;100170.53;;;20.12;42.41
71145;BME280;58812;47.698;17.726;2023-04-20T14:15:50;100167.53;;;20.34;42.52
71145;BME280;58812;47.698;17.726;2023-04-20T14:18:16;100169.44;;;20.46;41.64
71145;BME280;58812;47.698;17.726;2023-04-20T14:20:41;100166.97;;;19.79;42.12
71145;BME280;58812;47.698;17.726;2023-04-20T14:23:07;100162.28;;;19.19;43.66
71145;BME280;58812;47.698;17.726;2023-04-20T14:25:32;100159.69;;;19.92;42.29
71145;BME280;58812;47.698;17.726;2023-04-20T14:27:58;100160.03;;;20.16;42.18
71145;BME280;58812;47.698;17.726;2023-04-20T14:30:23;100157.91;;;20.51;42.04
71145;BME280;58812;47.698;17.726;2023-04-20T14:32:56;100154.56;;;20.56;42.24
71145;BME280;58812;47.698;17.726;2023-04-20T14:35:24;100160.41;;;20.39;41.90
71145;BME280;58812;47.698;17.726;2023-04-20T14:37:50;100155.84;;;20.40;41.61
71145;BME280;58812;47.698;17.726;2023-04-20T14:40:16;100152.94;;;19.48;43.61
71145;BME280;58812;47.698;17.726;2023-04-20T14:42:42;100146.44;;;19.36;43.14
71145;BME280;58812;47.698;17.726;2023-04-20T14:45:08;100150.00;;;19.30;42.67
71145;BME280;58812;47.698;17.726;2023-04-20T14:47:34;100142.28;;;19.54;43.32
71145;BME280;58812;47.698;17.726;2023-04-20T14:49:59;100136.25;;;19.85;41.92
71145;BME280;58812;47.698;17.726;2023-04-20T14:52:24;100145.03;;;19.80;42.27
71145;BME280;58812;47.698;17.726;2023-04-20T14:54:50;100137.06;;;20.12;42.13
71145;BME280;58812;47.698;17.726;2023-04-20T14:57:16;100139.16;;;20.03;43.25
71145;BME280;58812;47.698;17.726;2023-04-20T14:59:41;100137.88;;;20.19;42.95
71145;BME280;58812;47.698;17.726;2023-04-20T15:02:07;100131.28;;;19.75;43.53
71145;BME280;58812;47.698;17.726;2023-04-20T15:04:32;100131.25;;;19.88;43.75
71145;BME280;58812;47.698;17.726;2023-04-20T15:06:58;100129.59;;;19.87;43.18
71145;BME280;58812;47.698;17.726;2023-04-20T15:09:23;100126.88;;;19.87;43.87
71145;BME280;58812;47.698;17.726;2023-04-20T15:11:49;100125.81;;;19.88;43.77
71145;BME280;58812;47.698;17.726;2023-04-20T15:14:15;100131.47;;;19.67;43.65
71145;BME280;58812;47.698;17.726;2023-04-20T15:16:40;100117.88;;;19.73;43.27
71145;BME280;58812;47.698;17.726;2023-04-20T15:19:06;100123.75;;;19.64;43.61
71145;BME280;58812;47.698;17.726;2023-04-20T15:21:31;100118.53;;;19.69;43.39
71145;BME280;58812;47.698;17.726;2023-04-20T15:23:57;100122.66;;;19.52;43.55
71145;BME280;58812;47.698;17.726;2023-04-20T15:26:23;100127.91;;;19.60;43.30
71145;BME280;58812;47.698;17.726;2023-04-20T15:28:50;100122.66;;;19.52;42.39
71145;BME280;58812;47.698;17.726;2023-04-20T15:31:16;100125.37;;;19.52;42.71
71145;BME280;58812;47.698;17.726;2023-04-20T15:33:43;100124.94;;;19.48;42.30
71145;BME280;58812;47.698;17.726;2023-04-20T15:36:08;100124.72;;;19.36;42.23
71145;BME280;58812;47.698;17.726;2023-04-20T15:38:34;100120.12;;;19.30;42.27
71145;BME280;58812;47.698;17.726;2023-04-20T15:40:59;100123.69;;;19.31;41.91
71145;BME280;58812;47.698;17.726;2023-04-20T15:43:25;100126.59;;;19.29;41.47
71145;BME280;58812;47.698;17.726;2023-04-20T15:45:50;100124.87;;;19.08;42.34
71145;BME280;58812;47.698;17.726;2023-04-20T15:48:16;100119.06;;;19.11;42.48
71145;BME280;58812;47.698;17.726;2023-04-20T15:50:41;100110.09;;;19.11;42.62
71145;BME280;58812;47.698;17.726;2023-04-20T15:53:07;100116.09;;;18.86;42.52
71145;BME280;58812;47.698;17.726;2023-04-20T15:55:32;100115.41;;;18.71;42.96
71145;BME280;58812;47.698;17.726;2023-04-20T15:58:01;100113.66;;;18.57;42.79
71145;BME280;58812;47.698;17.726;2023-04-20T16:00:27;100116.16;;;18.58;43.04
71145;BME280;58812;47.698;17.726;2023-04-20T16:02:52;100119.19;;;18.42;43.45
71145;BME280;58812;47.698;17.726;2023-04-20T16:05:18;100113.78;;;18.42;43.60
71145;BME280;58812;47.698;17.726;2023-04-20T16:07:44;100109.16;;;18.36;43.76
71145;BME280;58812;47.698;17.726;2023-04-20T16:10:09;100115.34;;;18.23;44.04
71145;BME280;58812;47.698;17.726;2023-04-20T16:12:35;100109.97;;;18.30;44.05
71145;BME280;58812;47.698;17.726;2023-04-20T16:15:01;100109.09;;;18.23;43.76
71145;BME280;58812;47.698;17.726;2023-04-20T16:17:27;100109.56;;;18.26;43.52
71145;BME280;58812;47.698;17.726;2023-04-20T16:19:53;100107.84;;;18.25;43.59
71145;BME280;58812;47.698;17.726;2023-04-20T16:22:18;100102.06;;;18.28;43.84
71145;BME280;58812;47.698;17.726;2023-04-20T16:24:44;100106.59;;;18.21;44.15
71145;BME280;58812;47.698;17.726;2023-04-20T16:27:09;100104.69;;;18.15;44.47
71145;BME280;58812;47.698;17.726;2023-04-20T16:29:35;100106.13;;;18.11;44.66
71145;BME280;58812;47.698;17.726;2023-04-20T16:32:00;100107.31;;;18.02;45.00
71145;BME280;58812;47.698;17.726;2023-04-20T16:34:26;100106.03;;;17.98;45.38
71145;BME280;58812;47.698;17.726;2023-04-20T16:36:51;100108.47;;;17.86;46.06
71145;BME280;58812;47.698;17.726;2023-04-20T16:39:16;100102.19;;;17.79;46.05
71145;BME280;58812;47.698;17.726;2023-04-20T16:41:42;100106.09;;;17.76;46.17
71145;BME280;58812;47.698;17.726;2023-04-20T16:44:08;100110.59;;;17.69;46.46
71145;BME280;58812;47.698;17.726;2023-04-20T16:46:37;100111.97;;;17.58;46.55
71145;BME280;58812;47.698;17.726;2023-04-20T16:49:02;100114.66;;;17.58;46.88
71145;BME280;58812;47.698;17.726;2023-04-20T16:51:28;100109.00;;;17.53;46.91
71145;BME280;58812;47.698;17.726;2023-04-20T16:53:54;100109.00;;;17.53;47.54
71145;BME280;58812;47.698;17.726;2023-04-20T16:56:19;100107.34;;;17.31;48.04
71145;BME280;58812;47.698;17.726;2023-04-20T16:58:45;100107.12;;;17.26;48.40
71145;BME280;58812;47.698;17.726;2023-04-20T17:01:12;100108.06;;;17.18;48.69
71145;BME280;58812;47.698;17.726;2023-04-20T17:03:37;100104.84;;;17.08;49.15
71145;BME280;58812;47.698;17.726;2023-04-20T17:06:03;100105.16;;;16.98;49.44
71145;BME280;58812;47.698;17.726;2023-04-20T17:08:31;100105.09;;;16.92;50.20
71145;BME280;58812;47.698;17.726;2023-04-20T17:10:58;100101.66;;;16.83;50.20
71145;BME280;58812;47.698;17.726;2023-04-20T17:13:23;100105.72;;;16.72;50.70
71145;BME280;58812;47.698;17.726;2023-04-20T17:15:48;100108.69;;;16.63;51.06
71145;BME280;58812;47.698;17.726;2023-04-20T17:18:14;100109.25;;;16.58;52.48
71145;BME280;58812;47.698;17.726;2023-04-20T17:20:40;100101.91;;;16.52;53.17
71145;BME280;58812;47.698;17.726;2023-04-20T17:23:06;100096.31;;;16.39;53.00
71145;BME280;58812;47.698;17.726;2023-04-20T17:25:31;100109.00;;;16.38;53.48
71145;BME280;58812;47.698;17.726;2023-04-20T17:27:57;100108.44;;;16.28;53.91
71145;BME280;58812;47.698;17.726;2023-04-20T17:30:22;100110.28;;;16.13;54.57
71145;BME280;58812;47.698;17.726;2023-04-20T17:32:47;100116.34;;;16.00;55.01
71145;BME280;58812;47.698;17.726;2023-04-20T17:35:13;100123.62;;;15.85;55.61
71145;BME280;58812;47.698;17.726;2023-04-20T17:37:38;100127.41;;;15.75;56.11
71145;BME280;58812;47.698;17.726;2023-04-20T17:40:04;100122.63;;;15.63;56.97
71145;BME280;58812;47.698;17.726;2023-04-20T17:42:30;100138.78;;;15.48;57.87
71145;BME280;58812;47.698;17.726;2023-04-20T17:44:56;100132.81;;;15.30;58.56
71145;BME280;58812;47.698;17.726;2023-04-20T17:47:21;100136.31;;;15.15;59.20
71145;BME280;58812;47.698;17.726;2023-04-20T17:49:47;100144.63;;;15.06;59.93
71145;BME280;58812;47.698;17.726;2023-04-20T17:52:12;100137.62;;;14.96;60.56